Sagola, Michigan
Current Conditions -  °F | °C
As of 2:54 PM on Sunday 23 Nov 2014 (Local Time) from KIMT Reporting Station
Moderate Fog Moderate Fog  
Wind Chill: 39°   Ceiling: 100
Heat Index: 42°   Visibility: 0mi
Dew Point: 41°   Wind: 5mph
Humidity: 96%   Direction: 130°SE
Pressure: 29.45"   Gusts: NA
Location:  46.09°N, 88.08°W
Report Text: KIMT 232054Z AUTO 13004KT M1/4SM FG VV001 06/05 A2945 RMK AO2 SLP983 T00560050 56020
Loading
Personal Weather Stations






























Interactive Weather Map New forecast layout! Learn more

10-Day Weather Forecast

Advertisements
Track Severe Weather on mobile